sensor_id;sensor_type;location;lat;lon;timestamp;P1;durP1;ratioP1;P2;durP2;ratioP2
54641;SDS011;40536;53.194;5.728;2023-02-12T00:00:00;172.55;;;29.52;;
54641;SDS011;40536;53.194;5.728;2023-02-12T00:02:30;129.07;;;27.58;;
54641;SDS011;40536;53.194;5.728;2023-02-12T00:04:56;144.35;;;26.52;;
54641;SDS011;40536;53.194;5.728;2023-02-12T00:07:21;164.48;;;28.20;;
54641;SDS011;40536;53.194;5.728;2023-02-12T00:09:48;149.15;;;32.33;;
54641;SDS011;40536;53.194;5.728;2023-02-12T00:12:15;58.35;;;30.80;;
54641;SDS011;40536;53.194;5.728;2023-02-12T00:14:41;125.28;;;36.03;;
54641;SDS011;40536;53.194;5.728;2023-02-12T00:17:06;80.85;;;35.50;;
54641;SDS011;40536;53.194;5.728;2023-02-12T00:19:32;87.97;;;43.15;;
54641;SDS011;40536;53.194;5.728;2023-02-12T00:21:57;86.80;;;42.60;;
54641;SDS011;40536;53.194;5.728;2023-02-12T00:24:24;113.97;;;45.17;;
54641;SDS011;40536;53.194;5.728;2023-02-12T00:26:51;149.00;;;42.38;;
54641;SDS011;40536;53.194;5.728;2023-02-12T00:29:16;90.20;;;38.22;;
54641;SDS011;40536;53.194;5.728;2023-02-12T00:31:42;172.27;;;41.28;;
54641;SDS011;40536;53.194;5.728;2023-02-12T00:34:08;62.85;;;34.45;;
54641;SDS011;40536;53.194;5.728;2023-02-12T00:36:35;49.83;;;32.95;;
54641;SDS011;40536;53.194;5.728;2023-02-12T00:39:00;36.80;;;33.63;;
54641;SDS011;40536;53.194;5.728;2023-02-12T00:41:26;44.70;;;35.00;;
54641;SDS011;40536;53.194;5.728;2023-02-12T00:43:52;45.85;;;35.85;;
54641;SDS011;40536;53.194;5.728;2023-02-12T00:46:18;46.30;;;33.50;;
54641;SDS011;40536;53.194;5.728;2023-02-12T00:48:44;59.63;;;35.35;;
54641;SDS011;40536;53.194;5.728;2023-02-12T00:51:10;77.70;;;35.15;;
54641;SDS011;40536;53.194;5.728;2023-02-12T00:53:36;38.17;;;34.28;;
54641;SDS011;40536;53.194;5.728;2023-02-12T00:56:03;77.68;;;34.67;;
54641;SDS011;40536;53.194;5.728;2023-02-12T00:58:29;60.75;;;37.35;;
54641;SDS011;40536;53.194;5.728;2023-02-12T01:00:54;40.00;;;35.88;;
54641;SDS011;40536;53.194;5.728;2023-02-12T01:03:20;39.63;;;35.33;;
54641;SDS011;40536;53.194;5.728;2023-02-12T01:05:47;47.30;;;37.33;;
54641;SDS011;40536;53.194;5.728;2023-02-12T01:08:13;54.10;;;37.10;;
54641;SDS011;40536;53.194;5.728;2023-02-12T01:10:40;40.00;;;34.50;;
54641;SDS011;40536;53.194;5.728;2023-02-12T01:13:06;53.10;;;35.42;;
54641;SDS011;40536;53.194;5.728;2023-02-12T01:15:35;57.95;;;34.42;;
54641;SDS011;40536;53.194;5.728;2023-02-12T01:18:00;76.63;;;36.15;;
54641;SDS011;40536;53.194;5.728;2023-02-12T01:20:26;44.53;;;35.28;;
54641;SDS011;40536;53.194;5.728;2023-02-12T01:22:51;211.98;;;39.63;;
54641;SDS011;40536;53.194;5.728;2023-02-12T01:25:17;61.33;;;34.50;;
54641;SDS011;40536;53.194;5.728;2023-02-12T01:27:43;98.90;;;38.05;;
54641;SDS011;40536;53.194;5.728;2023-02-12T01:30:10;55.40;;;35.25;;
54641;SDS011;40536;53.194;5.728;2023-02-12T01:32:37;75.25;;;36.60;;
54641;SDS011;40536;53.194;5.728;2023-02-12T01:35:03;37.22;;;34.22;;
54641;SDS011;40536;53.194;5.728;2023-02-12T01:37:30;59.67;;;34.47;;
54641;SDS011;40536;53.194;5.728;2023-02-12T01:39:58;56.00;;;34.58;;
54641;SDS011;40536;53.194;5.728;2023-02-12T01:42:24;175.48;;;42.67;;
54641;SDS011;40536;53.194;5.728;2023-02-12T01:47:41;83.78;;;35.95;;
54641;SDS011;40536;53.194;5.728;2023-02-12T01:50:12;120.60;;;38.60;;
54641;SDS011;40536;53.194;5.728;2023-02-12T01:52:42;135.77;;;37.03;;
54641;SDS011;40536;53.194;5.728;2023-02-12T01:55:10;131.55;;;37.28;;
54641;SDS011;40536;53.194;5.728;2023-02-12T01:57:37;158.55;;;41.03;;
54641;SDS011;40536;53.194;5.728;2023-02-12T02:00:08;37.72;;;34.75;;
54641;SDS011;40536;53.194;5.728;2023-02-12T02:02:37;40.25;;;36.80;;
54641;SDS011;40536;53.194;5.728;2023-02-12T02:05:03;46.42;;;38.28;;
54641;SDS011;40536;53.194;5.728;2023-02-12T02:07:31;94.72;;;40.25;;
54641;SDS011;40536;53.194;5.728;2023-02-12T02:09:57;39.72;;;36.35;;
54641;SDS011;40536;53.194;5.728;2023-02-12T02:12:27;57.60;;;37.83;;
54641;SDS011;40536;53.194;5.728;2023-02-12T02:15:12;40.78;;;36.53;;
54641;SDS011;40536;53.194;5.728;2023-02-12T02:17:41;44.08;;;35.85;;
54641;SDS011;40536;53.194;5.728;2023-02-12T02:31:16;146.70;;;40.70;;
54641;SDS011;40536;53.194;5.728;2023-02-12T02:45:05;41.30;;;37.28;;
54641;SDS011;40536;53.194;5.728;2023-02-12T02:47:42;351.75;;;46.85;;
54641;SDS011;40536;53.194;5.728;2023-02-12T02:50:11;276.38;;;42.08;;
54641;SDS011;40536;53.194;5.728;2023-02-12T02:52:42;37.65;;;33.60;;
54641;SDS011;40536;53.194;5.728;2023-02-12T02:55:46;208.32;;;40.35;;
54641;SDS011;40536;53.194;5.728;2023-02-12T02:58:19;161.30;;;39.78;;
54641;SDS011;40536;53.194;5.728;2023-02-12T03:00:55;85.20;;;36.95;;
54641;SDS011;40536;53.194;5.728;2023-02-12T03:03:29;153.38;;;36.85;;
54641;SDS011;40536;53.194;5.728;2023-02-12T03:06:00;305.02;;;42.83;;
54641;SDS011;40536;53.194;5.728;2023-02-12T03:08:34;260.58;;;42.63;;
54641;SDS011;40536;53.194;5.728;2023-02-12T03:11:06;277.95;;;42.70;;
54641;SDS011;40536;53.194;5.728;2023-02-12T03:13:53;43.25;;;37.47;;
54641;SDS011;40536;53.194;5.728;2023-02-12T03:16:31;168.95;;;43.30;;
54641;SDS011;40536;53.194;5.728;2023-02-12T03:19:04;162.35;;;42.55;;
54641;SDS011;40536;53.194;5.728;2023-02-12T03:21:53;107.45;;;39.80;;
54641;SDS011;40536;53.194;5.728;2023-02-12T03:24:56;258.58;;;45.03;;
54641;SDS011;40536;53.194;5.728;2023-02-12T03:27:32;196.68;;;42.35;;
54641;SDS011;40536;53.194;5.728;2023-02-12T03:30:04;223.45;;;43.78;;
54641;SDS011;40536;53.194;5.728;2023-02-12T03:32:36;206.23;;;44.10;;
54641;SDS011;40536;53.194;5.728;2023-02-12T03:48:08;86.85;;;40.55;;
54641;SDS011;40536;53.194;5.728;2023-02-12T03:51:39;99.22;;;40.55;;
54641;SDS011;40536;53.194;5.728;2023-02-12T03:53:49;56.75;;;38.17;;
54641;SDS011;40536;53.194;5.728;2023-02-12T03:56:18;59.88;;;36.05;;
54641;SDS011;40536;53.194;5.728;2023-02-12T03:59:04;40.45;;;36.33;;
54641;SDS011;40536;53.194;5.728;2023-02-12T04:01:31;46.00;;;37.30;;
54641;SDS011;40536;53.194;5.728;2023-02-12T04:03:59;59.22;;;38.80;;
54641;SDS011;40536;53.194;5.728;2023-02-12T04:06:28;45.95;;;35.67;;
54641;SDS011;40536;53.194;5.728;2023-02-12T04:08:54;38.65;;;35.28;;
54641;SDS011;40536;53.194;5.728;2023-02-12T04:25:47;42.58;;;38.35;;
54641;SDS011;40536;53.194;5.728;2023-02-12T04:32:03;120.28;;;38.17;;
54641;SDS011;40536;53.194;5.728;2023-02-12T04:34:44;85.85;;;36.00;;
54641;SDS011;40536;53.194;5.728;2023-02-12T04:37:37;98.90;;;37.10;;
54641;SDS011;40536;53.194;5.728;2023-02-12T04:40:05;96.90;;;36.15;;
54641;SDS011;40536;53.194;5.728;2023-02-12T04:42:42;65.28;;;34.35;;
54641;SDS011;40536;53.194;5.728;2023-02-12T04:45:10;58.05;;;32.75;;
54641;SDS011;40536;53.194;5.728;2023-02-12T04:47:37;36.78;;;33.83;;
54641;SDS011;40536;53.194;5.728;2023-02-12T04:50:04;36.58;;;33.78;;
54641;SDS011;40536;53.194;5.728;2023-02-12T04:52:30;111.13;;;35.20;;
54641;SDS011;40536;53.194;5.728;2023-02-12T04:54:55;50.58;;;32.28;;
54641;SDS011;40536;53.194;5.728;2023-02-12T04:57:21;35.78;;;32.75;;
54641;SDS011;40536;53.194;5.728;2023-02-12T04:59:47;141.20;;;35.65;;
54641;SDS011;40536;53.194;5.728;2023-02-12T05:02:12;92.72;;;34.45;;
54641;SDS011;40536;53.194;5.728;2023-02-12T05:04:38;72.30;;;34.50;;
54641;SDS011;40536;53.194;5.728;2023-02-12T05:07:03;79.60;;;35.63;;
54641;SDS011;40536;53.194;5.728;2023-02-12T05:09:29;59.97;;;34.58;;
54641;SDS011;40536;53.194;5.728;2023-02-12T05:11:55;98.45;;;35.83;;
54641;SDS011;40536;53.194;5.728;2023-02-12T05:14:22;118.30;;;38.08;;
54641;SDS011;40536;53.194;5.728;2023-02-12T05:16:49;97.68;;;40.80;;
54641;SDS011;40536;53.194;5.728;2023-02-12T05:19:15;101.97;;;40.28;;
54641;SDS011;40536;53.194;5.728;2023-02-12T05:21:41;56.88;;;39.33;;
54641;SDS011;40536;53.194;5.728;2023-02-12T05:24:07;109.70;;;42.90;;
54641;SDS011;40536;53.194;5.728;2023-02-12T05:26:33;62.72;;;40.97;;
54641;SDS011;40536;53.194;5.728;2023-02-12T05:28:59;132.32;;;43.75;;
54641;SDS011;40536;53.194;5.728;2023-02-12T05:31:24;40.95;;;37.15;;
54641;SDS011;40536;53.194;5.728;2023-02-12T05:33:50;124.30;;;42.95;;
54641;SDS011;40536;53.194;5.728;2023-02-12T05:36:18;75.30;;;35.65;;
54641;SDS011;40536;53.194;5.728;2023-02-12T05:38:46;142.70;;;39.38;;
54641;SDS011;40536;53.194;5.728;2023-02-12T05:41:14;59.40;;;36.45;;
54641;SDS011;40536;53.194;5.728;2023-02-12T05:43:41;83.30;;;37.08;;
54641;SDS011;40536;53.194;5.728;2023-02-12T05:46:08;39.50;;;35.40;;
54641;SDS011;40536;53.194;5.728;2023-02-12T05:48:34;56.33;;;34.63;;
54641;SDS011;40536;53.194;5.728;2023-02-12T05:53:33;51.95;;;35.70;;
54641;SDS011;40536;53.194;5.728;2023-02-12T05:56:15;48.50;;;34.53;;
54641;SDS011;40536;53.194;5.728;2023-02-12T05:58:44;51.50;;;35.15;;
54641;SDS011;40536;53.194;5.728;2023-02-12T06:01:15;45.97;;;34.80;;
54641;SDS011;40536;53.194;5.728;2023-02-12T06:03:47;56.28;;;34.60;;
54641;SDS011;40536;53.194;5.728;2023-02-12T06:06:13;46.47;;;33.50;;
54641;SDS011;40536;53.194;5.728;2023-02-12T06:08:38;49.83;;;34.80;;
54641;SDS011;40536;53.194;5.728;2023-02-12T06:11:05;48.88;;;36.83;;
54641;SDS011;40536;53.194;5.728;2023-02-12T06:13:32;57.75;;;35.45;;
54641;SDS011;40536;53.194;5.728;2023-02-12T06:15:58;56.08;;;35.72;;
54641;SDS011;40536;53.194;5.728;2023-02-12T06:18:24;64.07;;;36.70;;
54641;SDS011;40536;53.194;5.728;2023-02-12T06:20:51;62.20;;;40.00;;
54641;SDS011;40536;53.194;5.728;2023-02-12T06:23:18;68.70;;;40.55;;
54641;SDS011;40536;53.194;5.728;2023-02-12T06:25:48;65.88;;;41.17;;
54641;SDS011;40536;53.194;5.728;2023-02-12T06:28:14;71.38;;;39.75;;
54641;SDS011;40536;53.194;5.728;2023-02-12T06:30:40;71.10;;;40.25;;
54641;SDS011;40536;53.194;5.728;2023-02-12T06:33:06;69.97;;;40.42;;
54641;SDS011;40536;53.194;5.728;2023-02-12T06:35:35;67.70;;;38.45;;
54641;SDS011;40536;53.194;5.728;2023-02-12T06:38:01;77.25;;;38.35;;
54641;SDS011;40536;53.194;5.728;2023-02-12T06:40:27;72.18;;;36.42;;
54641;SDS011;40536;53.194;5.728;2023-02-12T06:42:52;72.13;;;35.60;;
54641;SDS011;40536;53.194;5.728;2023-02-12T06:45:18;70.55;;;35.63;;
54641;SDS011;40536;53.194;5.728;2023-02-12T06:47:44;73.50;;;34.63;;
54641;SDS011;40536;53.194;5.728;2023-02-12T06:50:10;83.80;;;36.90;;
54641;SDS011;40536;53.194;5.728;2023-02-12T06:52:35;82.05;;;36.47;;
54641;SDS011;40536;53.194;5.728;2023-02-12T06:55:01;78.75;;;37.08;;
54641;SDS011;40536;53.194;5.728;2023-02-12T06:57:27;67.63;;;35.38;;
54641;SDS011;40536;53.194;5.728;2023-02-12T06:59:54;77.57;;;38.38;;
54641;SDS011;40536;53.194;5.728;2023-02-12T07:02:20;77.82;;;38.38;;
54641;SDS011;40536;53.194;5.728;2023-02-12T07:04:47;88.03;;;42.10;;
54641;SDS011;40536;53.194;5.728;2023-02-12T07:07:12;78.95;;;43.70;;
54641;SDS011;40536;53.194;5.728;2023-02-12T07:09:38;91.68;;;46.15;;
54641;SDS011;40536;53.194;5.728;2023-02-12T07:12:04;84.15;;;44.45;;
54641;SDS011;40536;53.194;5.728;2023-02-12T07:14:30;82.10;;;45.88;;
54641;SDS011;40536;53.194;5.728;2023-02-12T07:16:56;91.82;;;48.13;;
54641;SDS011;40536;53.194;5.728;2023-02-12T07:19:21;81.75;;;48.35;;
54641;SDS011;40536;53.194;5.728;2023-02-12T07:21:48;85.15;;;48.15;;
54641;SDS011;40536;53.194;5.728;2023-02-12T07:24:14;80.90;;;47.20;;
54641;SDS011;40536;53.194;5.728;2023-02-12T07:26:42;93.28;;;48.55;;
54641;SDS011;40536;53.194;5.728;2023-02-12T07:29:08;84.10;;;47.45;;
54641;SDS011;40536;53.194;5.728;2023-02-12T07:31:33;109.63;;;49.75;;
54641;SDS011;40536;53.194;5.728;2023-02-12T07:34:02;105.88;;;47.05;;
54641;SDS011;40536;53.194;5.728;2023-02-12T07:36:29;90.72;;;46.03;;
54641;SDS011;40536;53.194;5.728;2023-02-12T07:38:56;93.85;;;48.47;;
54641;SDS011;40536;53.194;5.728;2023-02-12T07:41:24;94.05;;;47.05;;
54641;SDS011;40536;53.194;5.728;2023-02-12T07:44:09;105.45;;;48.88;;
54641;SDS011;40536;53.194;5.728;2023-02-12T07:46:40;87.88;;;47.95;;
54641;SDS011;40536;53.194;5.728;2023-02-12T07:49:12;89.45;;;47.72;;
54641;SDS011;40536;53.194;5.728;2023-02-12T07:51:39;95.97;;;47.88;;
54641;SDS011;40536;53.194;5.728;2023-02-12T07:54:05;90.55;;;48.92;;
54641;SDS011;40536;53.194;5.728;2023-02-12T07:56:31;91.10;;;48.97;;
54641;SDS011;40536;53.194;5.728;2023-02-12T07:59:04;95.45;;;50.75;;
54641;SDS011;40536;53.194;5.728;2023-02-12T08:01:35;92.38;;;49.05;;
54641;SDS011;40536;53.194;5.728;2023-02-12T08:04:03;95.40;;;50.20;;
54641;SDS011;40536;53.194;5.728;2023-02-12T08:06:32;98.82;;;50.17;;
54641;SDS011;40536;53.194;5.728;2023-02-12T08:09:00;91.40;;;52.42;;
54641;SDS011;40536;53.194;5.728;2023-02-12T08:11:28;108.90;;;54.33;;
54641;SDS011;40536;53.194;5.728;2023-02-12T08:13:55;83.22;;;48.50;;
54641;SDS011;40536;53.194;5.728;2023-02-12T08:16:22;87.43;;;48.25;;
54641;SDS011;40536;53.194;5.728;2023-02-12T08:18:49;81.85;;;50.35;;
54641;SDS011;40536;53.194;5.728;2023-02-12T08:21:16;85.63;;;48.17;;
54641;SDS011;40536;53.194;5.728;2023-02-12T08:23:43;111.85;;;50.22;;
54641;SDS011;40536;53.194;5.728;2023-02-12T08:26:14;101.10;;;50.50;;
54641;SDS011;40536;53.194;5.728;2023-02-12T08:28:49;97.00;;;50.10;;
54641;SDS011;40536;53.194;5.728;2023-02-12T08:31:20;99.65;;;48.28;;
54641;SDS011;40536;53.194;5.728;2023-02-12T08:33:51;97.13;;;49.55;;
54641;SDS011;40536;53.194;5.728;2023-02-12T08:36:19;84.03;;;49.55;;
54641;SDS011;40536;53.194;5.728;2023-02-12T08:38:48;94.50;;;48.22;;
54641;SDS011;40536;53.194;5.728;2023-02-12T08:41:15;80.53;;;45.25;;
54641;SDS011;40536;53.194;5.728;2023-02-12T08:43:46;76.82;;;44.65;;
54641;SDS011;40536;53.194;5.728;2023-02-12T08:46:17;77.30;;;45.67;;
54641;SDS011;40536;53.194;5.728;2023-02-12T08:48:47;73.30;;;44.30;;
54641;SDS011;40536;53.194;5.728;2023-02-12T08:51:23;73.45;;;41.80;;
54641;SDS011;40536;53.194;5.728;2023-02-12T08:53:57;73.63;;;37.90;;
54641;SDS011;40536;53.194;5.728;2023-02-12T08:56:24;73.13;;;38.35;;
54641;SDS011;40536;53.194;5.728;2023-02-12T08:58:51;67.40;;;35.97;;
54641;SDS011;40536;53.194;5.728;2023-02-12T09:01:18;62.70;;;35.20;;
54641;SDS011;40536;53.194;5.728;2023-02-12T09:03:46;63.55;;;35.15;;
54641;SDS011;40536;53.194;5.728;2023-02-12T09:06:13;55.63;;;34.25;;
54641;SDS011;40536;53.194;5.728;2023-02-12T09:08:40;60.33;;;35.25;;
54641;SDS011;40536;53.194;5.728;2023-02-12T09:11:07;68.45;;;36.60;;
54641;SDS011;40536;53.194;5.728;2023-02-12T09:13:35;57.78;;;33.88;;
54641;SDS011;40536;53.194;5.728;2023-02-12T09:16:01;56.22;;;32.45;;
54641;SDS011;40536;53.194;5.728;2023-02-12T09:18:28;57.33;;;33.72;;
54641;SDS011;40536;53.194;5.728;2023-02-12T09:20:59;55.40;;;32.78;;
54641;SDS011;40536;53.194;5.728;2023-02-12T09:23:29;53.50;;;33.75;;
54641;SDS011;40536;53.194;5.728;2023-02-12T09:25:55;57.63;;;37.25;;
54641;SDS011;40536;53.194;5.728;2023-02-12T09:28:20;59.70;;;52.08;;
54641;SDS011;40536;53.194;5.728;2023-02-12T09:30:46;54.03;;;37.35;;
54641;SDS011;40536;53.194;5.728;2023-02-12T09:33:12;54.03;;;38.10;;
54641;SDS011;40536;53.194;5.728;2023-02-12T09:35:38;48.40;;;34.72;;
54641;SDS011;40536;53.194;5.728;2023-02-12T09:38:07;50.05;;;36.30;;
54641;SDS011;40536;53.194;5.728;2023-02-12T09:40:49;49.63;;;34.28;;
54641;SDS011;40536;53.194;5.728;2023-02-12T09:43:35;51.00;;;35.47;;
54641;SDS011;40536;53.194;5.728;2023-02-12T09:46:25;56.70;;;35.53;;
54641;SDS011;40536;53.194;5.728;2023-02-12T09:51:39;47.58;;;33.08;;
54641;SDS011;40536;53.194;5.728;2023-02-12T09:56:38;43.50;;;31.42;;
54641;SDS011;40536;53.194;5.728;2023-02-12T09:59:07;43.50;;;30.98;;
54641;SDS011;40536;53.194;5.728;2023-02-12T10:01:33;50.53;;;32.25;;
54641;SDS011;40536;53.194;5.728;2023-02-12T10:03:59;42.42;;;31.88;;
54641;SDS011;40536;53.194;5.728;2023-02-12T10:06:28;45.47;;;35.15;;
54641;SDS011;40536;53.194;5.728;2023-02-12T10:11:32;39.33;;;35.05;;
54641;SDS011;40536;53.194;5.728;2023-02-12T10:28:04;36.20;;;24.08;;
54641;SDS011;40536;53.194;5.728;2023-02-12T10:33:05;39.83;;;25.27;;
54641;SDS011;40536;53.194;5.728;2023-02-12T10:35:35;32.45;;;25.08;;
54641;SDS011;40536;53.194;5.728;2023-02-12T10:38:03;38.72;;;25.88;;
54641;SDS011;40536;53.194;5.728;2023-02-12T10:40:49;41.30;;;27.65;;
54641;SDS011;40536;53.194;5.728;2023-02-12T10:43:15;42.15;;;28.77;;
54641;SDS011;40536;53.194;5.728;2023-02-12T10:45:42;41.53;;;29.25;;
54641;SDS011;40536;53.194;5.728;2023-02-12T10:50:50;40.08;;;29.45;;
54641;SDS011;40536;53.194;5.728;2023-02-12T10:53:43;40.65;;;28.52;;
54641;SDS011;40536;53.194;5.728;2023-02-12T10:56:14;34.97;;;25.50;;
54641;SDS011;40536;53.194;5.728;2023-02-12T11:01:14;41.42;;;29.38;;
54641;SDS011;40536;53.194;5.728;2023-02-12T11:03:51;37.10;;;27.27;;
54641;SDS011;40536;53.194;5.728;2023-02-12T11:06:19;33.55;;;24.42;;
54641;SDS011;40536;53.194;5.728;2023-02-12T11:08:47;39.90;;;29.30;;
54641;SDS011;40536;53.194;5.728;2023-02-12T11:11:15;37.25;;;28.85;;
54641;SDS011;40536;53.194;5.728;2023-02-12T11:13:51;37.60;;;29.95;;
54641;SDS011;40536;53.194;5.728;2023-02-12T11:16:31;39.58;;;26.90;;
54641;SDS011;40536;53.194;5.728;2023-02-12T11:19:06;41.08;;;29.80;;
54641;SDS011;40536;53.194;5.728;2023-02-12T11:21:33;35.80;;;27.42;;
54641;SDS011;40536;53.194;5.728;2023-02-12T11:24:19;35.35;;;28.10;;
54641;SDS011;40536;53.194;5.728;2023-02-12T11:26:47;34.28;;;27.23;;
54641;SDS011;40536;53.194;5.728;2023-02-12T11:29:17;35.13;;;26.40;;
54641;SDS011;40536;53.194;5.728;2023-02-12T11:32:02;36.22;;;27.63;;
54641;SDS011;40536;53.194;5.728;2023-02-12T11:34:29;35.20;;;27.00;;
54641;SDS011;40536;53.194;5.728;2023-02-12T11:36:55;36.20;;;27.48;;
54641;SDS011;40536;53.194;5.728;2023-02-12T11:39:23;33.58;;;26.52;;
54641;SDS011;40536;53.194;5.728;2023-02-12T11:42:02;33.25;;;27.67;;
54641;SDS011;40536;53.194;5.728;2023-02-12T11:44:39;35.15;;;27.77;;
54641;SDS011;40536;53.194;5.728;2023-02-12T11:50:37;33.90;;;26.42;;
54641;SDS011;40536;53.194;5.728;2023-02-12T11:53:07;31.63;;;25.65;;
54641;SDS011;40536;53.194;5.728;2023-02-12T11:55:50;33.25;;;25.92;;
54641;SDS011;40536;53.194;5.728;2023-02-12T11:58:28;31.85;;;25.40;;
54641;SDS011;40536;53.194;5.728;2023-02-12T12:01:00;34.70;;;27.50;;
54641;SDS011;40536;53.194;5.728;2023-02-12T12:06:43;31.25;;;25.70;;
54641;SDS011;40536;53.194;5.728;2023-02-12T12:12:21;30.85;;;27.30;;
54641;SDS011;40536;53.194;5.728;2023-02-12T12:14:58;33.88;;;28.83;;
54641;SDS011;40536;53.194;5.728;2023-02-12T12:17:51;35.30;;;28.65;;
54641;SDS011;40536;53.194;5.728;2023-02-12T12:20:49;36.47;;;29.98;;
54641;SDS011;40536;53.194;5.728;2023-02-12T12:23:20;32.88;;;29.25;;
54641;SDS011;40536;53.194;5.728;2023-02-12T12:26:34;35.35;;;28.70;;
54641;SDS011;40536;53.194;5.728;2023-02-12T12:31:41;34.30;;;30.17;;
54641;SDS011;40536;53.194;5.728;2023-02-12T12:34:11;34.38;;;30.67;;
54641;SDS011;40536;53.194;5.728;2023-02-12T12:36:55;34.97;;;30.38;;
54641;SDS011;40536;53.194;5.728;2023-02-12T12:48:16;35.03;;;30.67;;
54641;SDS011;40536;53.194;5.728;2023-02-12T13:15:55;35.05;;;29.33;;
54641;SDS011;40536;53.194;5.728;2023-02-12T13:18:50;43.72;;;36.25;;
54641;SDS011;40536;53.194;5.728;2023-02-12T13:24:02;40.22;;;36.22;;
54641;SDS011;40536;53.194;5.728;2023-02-12T13:26:49;41.30;;;37.20;;
54641;SDS011;40536;53.194;5.728;2023-02-12T13:32:00;32.10;;;28.48;;
54641;SDS011;40536;53.194;5.728;2023-02-12T13:34:30;30.52;;;27.27;;
54641;SDS011;40536;53.194;5.728;2023-02-12T13:37:01;32.25;;;27.42;;
54641;SDS011;40536;53.194;5.728;2023-02-12T13:39:37;29.90;;;26.75;;
54641;SDS011;40536;53.194;5.728;2023-02-12T13:50:56;28.98;;;23.90;;
54641;SDS011;40536;53.194;5.728;2023-02-12T13:53:49;35.97;;;32.38;;
54641;SDS011;40536;53.194;5.728;2023-02-12T13:56:37;27.40;;;24.30;;
54641;SDS011;40536;53.194;5.728;2023-02-12T14:01:57;32.05;;;25.80;;
54641;SDS011;40536;53.194;5.728;2023-02-12T14:07:09;38.97;;;35.20;;
54641;SDS011;40536;53.194;5.728;2023-02-12T14:09:39;38.13;;;34.13;;
54641;SDS011;40536;53.194;5.728;2023-02-12T14:14:50;37.03;;;33.45;;
54641;SDS011;40536;53.194;5.728;2023-02-12T14:30:23;38.28;;;34.15;;
54641;SDS011;40536;53.194;5.728;2023-02-12T14:37:54;36.40;;;32.83;;
54641;SDS011;40536;53.194;5.728;2023-02-12T14:40:29;32.22;;;28.10;;
54641;SDS011;40536;53.194;5.728;2023-02-12T14:42:58;36.03;;;32.60;;
54641;SDS011;40536;53.194;5.728;2023-02-12T14:45:25;33.95;;;30.50;;
54641;SDS011;40536;53.194;5.728;2023-02-12T14:47:53;34.58;;;27.98;;
54641;SDS011;40536;53.194;5.728;2023-02-12T14:50:21;32.42;;;26.92;;
54641;SDS011;40536;53.194;5.728;2023-02-12T14:52:57;28.38;;;25.02;;
54641;SDS011;40536;53.194;5.728;2023-02-12T14:55:43;27.77;;;24.75;;
54641;SDS011;40536;53.194;5.728;2023-02-12T14:58:16;30.30;;;25.70;;
54641;SDS011;40536;53.194;5.728;2023-02-12T15:00:44;29.13;;;23.85;;
54641;SDS011;40536;53.194;5.728;2023-02-12T15:11:44;31.38;;;28.55;;
54641;SDS011;40536;53.194;5.728;2023-02-12T15:16:48;32.10;;;28.70;;
54641;SDS011;40536;53.194;5.728;2023-02-12T15:24:51;30.48;;;27.63;;
54641;SDS011;40536;53.194;5.728;2023-02-12T15:27:17;32.05;;;28.88;;
54641;SDS011;40536;53.194;5.728;2023-02-12T15:29:45;24.73;;;21.67;;
54641;SDS011;40536;53.194;5.728;2023-02-12T15:32:15;24.38;;;21.80;;
54641;SDS011;40536;53.194;5.728;2023-02-12T15:34:51;31.08;;;27.83;;
54641;SDS011;40536;53.194;5.728;2023-02-12T15:37:20;26.08;;;20.95;;
54641;SDS011;40536;53.194;5.728;2023-02-12T15:39:51;29.92;;;27.05;;
54641;SDS011;40536;53.194;5.728;2023-02-12T15:42:22;30.70;;;27.58;;
54641;SDS011;40536;53.194;5.728;2023-02-12T15:44:47;28.17;;;25.27;;
54641;SDS011;40536;53.194;5.728;2023-02-12T15:47:14;30.23;;;27.30;;
54641;SDS011;40536;53.194;5.728;2023-02-12T15:49:41;29.10;;;26.40;;
54641;SDS011;40536;53.194;5.728;2023-02-12T15:54:43;20.73;;;18.55;;
54641;SDS011;40536;53.194;5.728;2023-02-12T15:57:12;30.67;;;27.60;;
54641;SDS011;40536;53.194;5.728;2023-02-12T15:59:47;28.60;;;25.98;;
54641;SDS011;40536;53.194;5.728;2023-02-12T16:02:17;30.00;;;27.25;;
54641;SDS011;40536;53.194;5.728;2023-02-12T16:04:44;33.60;;;27.10;;
54641;SDS011;40536;53.194;5.728;2023-02-12T16:07:11;29.67;;;26.77;;
54641;SDS011;40536;53.194;5.728;2023-02-12T16:09:38;24.40;;;20.55;;
54641;SDS011;40536;53.194;5.728;2023-02-12T16:12:06;29.83;;;27.02;;
54641;SDS011;40536;53.194;5.728;2023-02-12T16:19:57;29.23;;;25.70;;
54641;SDS011;40536;53.194;5.728;2023-02-12T16:22:32;28.77;;;25.88;;
54641;SDS011;40536;53.194;5.728;2023-02-12T16:25:01;28.73;;;25.90;;
54641;SDS011;40536;53.194;5.728;2023-02-12T16:27:37;28.70;;;25.92;;
54641;SDS011;40536;53.194;5.728;2023-02-12T16:30:07;29.38;;;26.73;;
54641;SDS011;40536;53.194;5.728;2023-02-12T16:32:56;26.85;;;23.98;;
54641;SDS011;40536;53.194;5.728;2023-02-12T16:35:24;28.65;;;25.77;;
54641;SDS011;40536;53.194;5.728;2023-02-12T16:40:29;31.45;;;28.20;;
54641;SDS011;40536;53.194;5.728;2023-02-12T16:43:22;30.25;;;27.30;;
54641;SDS011;40536;53.194;5.728;2023-02-12T16:45:47;30.88;;;28.00;;
54641;SDS011;40536;53.194;5.728;2023-02-12T16:48:15;28.88;;;26.05;;
54641;SDS011;40536;53.194;5.728;2023-02-12T16:50:45;27.98;;;25.05;;
54641;SDS011;40536;53.194;5.728;2023-02-12T16:55:56;29.52;;;26.65;;
54641;SDS011;40536;53.194;5.728;2023-02-12T16:58:22;29.42;;;25.65;;
54641;SDS011;40536;53.194;5.728;2023-02-12T17:00:49;33.47;;;27.25;;
54641;SDS011;40536;53.194;5.728;2023-02-12T17:03:16;29.70;;;26.60;;
54641;SDS011;40536;53.194;5.728;2023-02-12T17:05:42;28.27;;;25.38;;
54641;SDS011;40536;53.194;5.728;2023-02-12T17:08:13;28.75;;;25.75;;
54641;SDS011;40536;53.194;5.728;2023-02-12T17:10:46;28.35;;;25.35;;
54641;SDS011;40536;53.194;5.728;2023-02-12T17:13:12;26.92;;;24.13;;
54641;SDS011;40536;53.194;5.728;2023-02-12T17:15:46;27.83;;;24.52;;
54641;SDS011;40536;53.194;5.728;2023-02-12T17:18:17;28.92;;;25.90;;
54641;SDS011;40536;53.194;5.728;2023-02-12T17:20:44;27.70;;;24.77;;
54641;SDS011;40536;53.194;5.728;2023-02-12T17:23:15;30.40;;;26.60;;
54641;SDS011;40536;53.194;5.728;2023-02-12T17:25:41;29.38;;;25.23;;
54641;SDS011;40536;53.194;5.728;2023-02-12T17:28:07;32.33;;;26.27;;
54641;SDS011;40536;53.194;5.728;2023-02-12T17:30:33;28.88;;;25.23;;
54641;SDS011;40536;53.194;5.728;2023-02-12T17:32:59;29.17;;;25.83;;
54641;SDS011;40536;53.194;5.728;2023-02-12T17:35:24;35.67;;;29.23;;
54641;SDS011;40536;53.194;5.728;2023-02-12T17:37:50;34.15;;;27.92;;
54641;SDS011;40536;53.194;5.728;2023-02-12T17:40:16;31.77;;;27.20;;
54641;SDS011;40536;53.194;5.728;2023-02-12T17:42:42;31.70;;;27.42;;
54641;SDS011;40536;53.194;5.728;2023-02-12T17:45:07;34.33;;;30.42;;
54641;SDS011;40536;53.194;5.728;2023-02-12T17:47:33;29.65;;;24.75;;
54641;SDS011;40536;53.194;5.728;2023-02-12T17:50:05;32.63;;;28.58;;
54641;SDS011;40536;53.194;5.728;2023-02-12T17:52:34;31.65;;;27.45;;
54641;SDS011;40536;53.194;5.728;2023-02-12T17:55:00;31.63;;;28.17;;
54641;SDS011;40536;53.194;5.728;2023-02-12T17:57:26;31.90;;;28.50;;
54641;SDS011;40536;53.194;5.728;2023-02-12T17:59:51;31.33;;;27.73;;
54641;SDS011;40536;53.194;5.728;2023-02-12T18:02:17;35.10;;;28.63;;